sensor_id;sensor_type;location;lat;lon;timestamp;P1;durP1;ratioP1;P2;durP2;ratioP2
36191;SDS011;22233;42.708;23.360;2022-12-10T00:00:53;5.38;;;3.38;;
36191;SDS011;22233;42.708;23.360;2022-12-10T00:03:18;3.95;;;2.88;;
36191;SDS011;22233;42.708;23.360;2022-12-10T00:05:43;4.85;;;2.28;;
36191;SDS011;22233;42.708;23.360;2022-12-10T00:08:09;6.32;;;4.78;;
36191;SDS011;22233;42.708;23.360;2022-12-10T00:10:38;6.78;;;4.55;;
36191;SDS011;22233;42.708;23.360;2022-12-10T00:13:04;8.52;;;3.45;;
36191;SDS011;22233;42.708;23.360;2022-12-10T00:15:29;7.05;;;5.22;;
36191;SDS011;22233;42.708;23.360;2022-12-10T00:17:54;8.98;;;4.47;;
36191;SDS011;22233;42.708;23.360;2022-12-10T00:20:20;8.52;;;4.18;;
36191;SDS011;22233;42.708;23.360;2022-12-10T00:22:45;8.63;;;3.20;;
36191;SDS011;22233;42.708;23.360;2022-12-10T00:25:11;4.90;;;3.38;;
36191;SDS011;22233;42.708;23.360;2022-12-10T00:27:36;6.47;;;3.30;;
36191;SDS011;22233;42.708;23.360;2022-12-10T00:30:02;7.20;;;3.70;;
36191;SDS011;22233;42.708;23.360;2022-12-10T00:32:29;7.90;;;3.95;;
36191;SDS011;22233;42.708;23.360;2022-12-10T00:34:54;6.03;;;4.22;;
36191;SDS011;22233;42.708;23.360;2022-12-10T00:37:20;5.15;;;3.47;;
36191;SDS011;22233;42.708;23.360;2022-12-10T00:39:45;6.40;;;3.80;;
36191;SDS011;22233;42.708;23.360;2022-12-10T00:42:11;5.82;;;3.25;;
36191;SDS011;22233;42.708;23.360;2022-12-10T00:44:36;8.75;;;3.25;;
36191;SDS011;22233;42.708;23.360;2022-12-10T00:47:02;8.40;;;3.50;;
36191;SDS011;22233;42.708;23.360;2022-12-10T00:49:27;6.65;;;3.53;;
36191;SDS011;22233;42.708;23.360;2022-12-10T00:51:53;8.10;;;2.90;;
36191;SDS011;22233;42.708;23.360;2022-12-10T00:54:18;5.38;;;3.20;;
36191;SDS011;22233;42.708;23.360;2022-12-10T00:56:43;13.30;;;4.13;;
36191;SDS011;22233;42.708;23.360;2022-12-10T00:59:09;7.68;;;5.40;;
36191;SDS011;22233;42.708;23.360;2022-12-10T01:01:35;8.13;;;4.00;;
36191;SDS011;22233;42.708;23.360;2022-12-10T01:04:04;7.70;;;4.18;;
36191;SDS011;22233;42.708;23.360;2022-12-10T01:06:36;8.52;;;3.25;;
36191;SDS011;22233;42.708;23.360;2022-12-10T01:09:06;8.38;;;3.45;;
36191;SDS011;22233;42.708;23.360;2022-12-10T01:11:35;7.45;;;3.28;;
36191;SDS011;22233;42.708;23.360;2022-12-10T01:14:05;3.28;;;2.40;;
36191;SDS011;22233;42.708;23.360;2022-12-10T01:16:32;4.75;;;2.90;;
36191;SDS011;22233;42.708;23.360;2022-12-10T01:18:58;7.82;;;3.15;;
36191;SDS011;22233;42.708;23.360;2022-12-10T01:21:25;5.05;;;2.95;;
36191;SDS011;22233;42.708;23.360;2022-12-10T01:23:52;5.78;;;2.80;;
36191;SDS011;22233;42.708;23.360;2022-12-10T01:26:19;6.60;;;2.83;;
36191;SDS011;22233;42.708;23.360;2022-12-10T01:28:47;8.27;;;3.20;;
36191;SDS011;22233;42.708;23.360;2022-12-10T01:31:24;5.60;;;2.63;;
36191;SDS011;22233;42.708;23.360;2022-12-10T01:33:51;6.40;;;3.30;;
36191;SDS011;22233;42.708;23.360;2022-12-10T01:36:19;4.57;;;2.45;;
36191;SDS011;22233;42.708;23.360;2022-12-10T01:38:49;4.22;;;2.35;;
36191;SDS011;22233;42.708;23.360;2022-12-10T01:41:16;7.10;;;2.75;;
36191;SDS011;22233;42.708;23.360;2022-12-10T01:46:26;6.18;;;2.67;;
36191;SDS011;22233;42.708;23.360;2022-12-10T01:49:00;8.63;;;2.83;;
36191;SDS011;22233;42.708;23.360;2022-12-10T01:51:29;8.27;;;2.72;;
36191;SDS011;22233;42.708;23.360;2022-12-10T01:53:57;7.03;;;3.50;;
36191;SDS011;22233;42.708;23.360;2022-12-10T01:56:23;8.23;;;2.70;;
36191;SDS011;22233;42.708;23.360;2022-12-10T01:58:53;7.53;;;2.67;;
36191;SDS011;22233;42.708;23.360;2022-12-10T02:01:23;8.60;;;2.50;;
36191;SDS011;22233;42.708;23.360;2022-12-10T02:06:44;4.88;;;2.83;;
36191;SDS011;22233;42.708;23.360;2022-12-10T02:12:11;5.82;;;3.17;;
36191;SDS011;22233;42.708;23.360;2022-12-10T02:14:43;6.80;;;4.07;;
36191;SDS011;22233;42.708;23.360;2022-12-10T02:17:29;6.25;;;3.92;;
36191;SDS011;22233;42.708;23.360;2022-12-10T02:22:48;5.45;;;2.80;;
36191;SDS011;22233;42.708;23.360;2022-12-10T02:25:17;9.75;;;4.30;;
36191;SDS011;22233;42.708;23.360;2022-12-10T02:30:31;6.47;;;3.65;;
36191;SDS011;22233;42.708;23.360;2022-12-10T02:32:59;7.25;;;4.75;;
36191;SDS011;22233;42.708;23.360;2022-12-10T02:35:28;9.50;;;4.03;;
36191;SDS011;22233;42.708;23.360;2022-12-10T02:37:58;8.25;;;5.13;;
36191;SDS011;22233;42.708;23.360;2022-12-10T02:40:29;7.72;;;3.63;;
36191;SDS011;22233;42.708;23.360;2022-12-10T02:42:57;7.38;;;3.65;;
36191;SDS011;22233;42.708;23.360;2022-12-10T02:45:23;7.07;;;3.50;;
36191;SDS011;22233;42.708;23.360;2022-12-10T02:47:53;6.55;;;3.42;;
36191;SDS011;22233;42.708;23.360;2022-12-10T02:50:22;8.60;;;4.10;;
36191;SDS011;22233;42.708;23.360;2022-12-10T02:52:48;8.18;;;4.25;;
36191;SDS011;22233;42.708;23.360;2022-12-10T02:55:14;9.02;;;5.35;;
36191;SDS011;22233;42.708;23.360;2022-12-10T03:00:50;7.55;;;3.80;;
36191;SDS011;22233;42.708;23.360;2022-12-10T03:03:41;6.85;;;4.38;;
36191;SDS011;22233;42.708;23.360;2022-12-10T03:06:32;9.00;;;3.55;;
36191;SDS011;22233;42.708;23.360;2022-12-10T03:09:05;9.70;;;4.65;;
36191;SDS011;22233;42.708;23.360;2022-12-10T03:11:33;7.38;;;3.75;;
36191;SDS011;22233;42.708;23.360;2022-12-10T03:14:07;9.18;;;4.82;;
36191;SDS011;22233;42.708;23.360;2022-12-10T03:16:39;6.90;;;4.30;;
36191;SDS011;22233;42.708;23.360;2022-12-10T03:19:13;6.82;;;3.65;;
36191;SDS011;22233;42.708;23.360;2022-12-10T03:21:42;9.93;;;4.30;;
36191;SDS011;22233;42.708;23.360;2022-12-10T03:24:12;6.07;;;3.92;;
36191;SDS011;22233;42.708;23.360;2022-12-10T03:26:38;8.48;;;3.72;;
36191;SDS011;22233;42.708;23.360;2022-12-10T03:29:08;7.72;;;3.63;;
36191;SDS011;22233;42.708;23.360;2022-12-10T03:31:39;12.50;;;4.15;;
36191;SDS011;22233;42.708;23.360;2022-12-10T03:34:05;6.32;;;3.67;;
36191;SDS011;22233;42.708;23.360;2022-12-10T03:36:34;9.05;;;4.85;;
36191;SDS011;22233;42.708;23.360;2022-12-10T03:39:00;9.85;;;4.82;;
36191;SDS011;22233;42.708;23.360;2022-12-10T03:41:26;7.15;;;4.03;;
36191;SDS011;22233;42.708;23.360;2022-12-10T03:43:55;9.73;;;3.95;;
36191;SDS011;22233;42.708;23.360;2022-12-10T03:46:22;7.95;;;4.32;;
36191;SDS011;22233;42.708;23.360;2022-12-10T03:48:50;6.25;;;3.58;;
36191;SDS011;22233;42.708;23.360;2022-12-10T03:51:16;4.82;;;3.13;;
36191;SDS011;22233;42.708;23.360;2022-12-10T03:53:42;7.60;;;3.92;;
36191;SDS011;22233;42.708;23.360;2022-12-10T03:56:07;6.18;;;3.33;;
36191;SDS011;22233;42.708;23.360;2022-12-10T03:58:32;7.63;;;3.85;;
36191;SDS011;22233;42.708;23.360;2022-12-10T04:00:58;7.38;;;3.75;;
36191;SDS011;22233;42.708;23.360;2022-12-10T04:03:23;6.60;;;3.70;;
36191;SDS011;22233;42.708;23.360;2022-12-10T04:05:49;6.20;;;4.03;;
36191;SDS011;22233;42.708;23.360;2022-12-10T04:08:14;6.88;;;3.88;;
36191;SDS011;22233;42.708;23.360;2022-12-10T04:10:40;6.78;;;3.80;;
36191;SDS011;22233;42.708;23.360;2022-12-10T04:13:05;5.38;;;2.92;;
36191;SDS011;22233;42.708;23.360;2022-12-10T04:15:49;6.90;;;3.70;;
36191;SDS011;22233;42.708;23.360;2022-12-10T04:18:34;4.53;;;3.45;;
36191;SDS011;22233;42.708;23.360;2022-12-10T04:20:59;5.80;;;3.40;;
36191;SDS011;22233;42.708;23.360;2022-12-10T04:23:43;6.85;;;3.30;;
36191;SDS011;22233;42.708;23.360;2022-12-10T04:26:27;5.70;;;2.65;;
36191;SDS011;22233;42.708;23.360;2022-12-10T04:29:11;5.07;;;2.97;;
36191;SDS011;22233;42.708;23.360;2022-12-10T04:31:37;10.20;;;3.05;;
36191;SDS011;22233;42.708;23.360;2022-12-10T04:34:02;4.07;;;2.88;;
36191;SDS011;22233;42.708;23.360;2022-12-10T04:36:27;5.15;;;3.55;;
36191;SDS011;22233;42.708;23.360;2022-12-10T04:38:53;4.80;;;2.78;;
36191;SDS011;22233;42.708;23.360;2022-12-10T04:41:18;3.15;;;2.33;;
36191;SDS011;22233;42.708;23.360;2022-12-10T04:43:44;4.25;;;2.45;;
36191;SDS011;22233;42.708;23.360;2022-12-10T04:46:09;5.15;;;3.17;;
36191;SDS011;22233;42.708;23.360;2022-12-10T04:48:36;4.43;;;3.10;;
36191;SDS011;22233;42.708;23.360;2022-12-10T04:51:01;6.57;;;3.63;;
36191;SDS011;22233;42.708;23.360;2022-12-10T04:53:27;6.82;;;3.40;;
36191;SDS011;22233;42.708;23.360;2022-12-10T04:55:52;4.00;;;2.72;;
36191;SDS011;22233;42.708;23.360;2022-12-10T04:58:18;5.38;;;3.08;;
36191;SDS011;22233;42.708;23.360;2022-12-10T05:00:43;5.05;;;2.60;;
36191;SDS011;22233;42.708;23.360;2022-12-10T05:03:09;5.43;;;3.33;;
36191;SDS011;22233;42.708;23.360;2022-12-10T05:05:34;3.63;;;2.40;;
36191;SDS011;22233;42.708;23.360;2022-12-10T05:08:00;6.43;;;3.15;;
36191;SDS011;22233;42.708;23.360;2022-12-10T05:10:26;6.45;;;2.85;;
36191;SDS011;22233;42.708;23.360;2022-12-10T05:12:51;3.50;;;2.58;;
36191;SDS011;22233;42.708;23.360;2022-12-10T05:15:17;7.13;;;3.40;;
36191;SDS011;22233;42.708;23.360;2022-12-10T05:17:42;4.10;;;2.65;;
36191;SDS011;22233;42.708;23.360;2022-12-10T05:20:08;4.60;;;2.70;;
36191;SDS011;22233;42.708;23.360;2022-12-10T05:22:34;4.60;;;2.78;;
36191;SDS011;22233;42.708;23.360;2022-12-10T05:25:17;6.63;;;2.97;;
36191;SDS011;22233;42.708;23.360;2022-12-10T05:27:43;6.10;;;2.60;;
36191;SDS011;22233;42.708;23.360;2022-12-10T05:30:08;5.80;;;2.80;;
36191;SDS011;22233;42.708;23.360;2022-12-10T05:32:35;4.63;;;2.40;;
36191;SDS011;22233;42.708;23.360;2022-12-10T05:35:00;8.55;;;3.15;;
36191;SDS011;22233;42.708;23.360;2022-12-10T05:37:26;4.75;;;3.05;;
36191;SDS011;22233;42.708;23.360;2022-12-10T05:39:53;7.90;;;3.05;;
36191;SDS011;22233;42.708;23.360;2022-12-10T05:42:19;5.43;;;2.65;;
36191;SDS011;22233;42.708;23.360;2022-12-10T05:44:45;8.38;;;2.58;;
36191;SDS011;22233;42.708;23.360;2022-12-10T05:47:10;7.57;;;3.63;;
36191;SDS011;22233;42.708;23.360;2022-12-10T05:49:36;5.30;;;2.85;;
36191;SDS011;22233;42.708;23.360;2022-12-10T05:52:01;9.57;;;3.20;;
36191;SDS011;22233;42.708;23.360;2022-12-10T05:54:26;3.85;;;3.15;;
36191;SDS011;22233;42.708;23.360;2022-12-10T05:56:52;3.50;;;2.60;;
36191;SDS011;22233;42.708;23.360;2022-12-10T05:59:18;6.50;;;2.70;;
36191;SDS011;22233;42.708;23.360;2022-12-10T06:01:44;4.20;;;2.75;;
36191;SDS011;22233;42.708;23.360;2022-12-10T06:04:09;4.28;;;2.55;;
36191;SDS011;22233;42.708;23.360;2022-12-10T06:06:36;4.70;;;2.80;;
36191;SDS011;22233;42.708;23.360;2022-12-10T06:09:03;7.00;;;3.70;;
36191;SDS011;22233;42.708;23.360;2022-12-10T06:11:29;8.57;;;3.40;;
36191;SDS011;22233;42.708;23.360;2022-12-10T06:13:58;5.35;;;3.22;;
36191;SDS011;22233;42.708;23.360;2022-12-10T06:16:24;5.50;;;2.95;;
36191;SDS011;22233;42.708;23.360;2022-12-10T06:18:51;7.00;;;3.47;;
36191;SDS011;22233;42.708;23.360;2022-12-10T06:21:17;8.07;;;3.97;;
36191;SDS011;22233;42.708;23.360;2022-12-10T06:23:44;7.72;;;4.00;;
36191;SDS011;22233;42.708;23.360;2022-12-10T06:26:12;6.22;;;3.67;;
36191;SDS011;22233;42.708;23.360;2022-12-10T06:28:41;9.27;;;3.38;;
36191;SDS011;22233;42.708;23.360;2022-12-10T06:31:09;9.07;;;3.95;;
36191;SDS011;22233;42.708;23.360;2022-12-10T06:33:34;6.57;;;3.83;;
36191;SDS011;22233;42.708;23.360;2022-12-10T06:36:02;6.90;;;4.53;;
36191;SDS011;22233;42.708;23.360;2022-12-10T06:38:29;6.25;;;3.97;;
36191;SDS011;22233;42.708;23.360;2022-12-10T06:40:54;5.95;;;4.22;;
36191;SDS011;22233;42.708;23.360;2022-12-10T06:43:20;6.60;;;4.25;;
36191;SDS011;22233;42.708;23.360;2022-12-10T06:45:45;6.63;;;3.80;;
36191;SDS011;22233;42.708;23.360;2022-12-10T06:48:11;6.10;;;3.78;;
36191;SDS011;22233;42.708;23.360;2022-12-10T06:50:36;5.07;;;3.72;;
36191;SDS011;22233;42.708;23.360;2022-12-10T06:53:02;7.45;;;3.85;;
36191;SDS011;22233;42.708;23.360;2022-12-10T06:55:28;4.00;;;3.10;;
36191;SDS011;22233;42.708;23.360;2022-12-10T06:57:53;6.43;;;4.15;;
36191;SDS011;22233;42.708;23.360;2022-12-10T07:00:20;4.68;;;2.90;;
36191;SDS011;22233;42.708;23.360;2022-12-10T07:02:46;8.68;;;3.65;;
36191;SDS011;22233;42.708;23.360;2022-12-10T07:05:12;5.22;;;2.90;;
36191;SDS011;22233;42.708;23.360;2022-12-10T07:07:38;4.53;;;3.10;;
36191;SDS011;22233;42.708;23.360;2022-12-10T07:10:04;5.93;;;4.03;;
36191;SDS011;22233;42.708;23.360;2022-12-10T07:12:30;7.43;;;4.43;;
36191;SDS011;22233;42.708;23.360;2022-12-10T07:14:55;8.82;;;4.72;;
36191;SDS011;22233;42.708;23.360;2022-12-10T07:17:20;8.30;;;4.25;;
36191;SDS011;22233;42.708;23.360;2022-12-10T07:19:46;10.32;;;5.90;;
36191;SDS011;22233;42.708;23.360;2022-12-10T07:22:11;14.13;;;6.90;;
36191;SDS011;22233;42.708;23.360;2022-12-10T07:24:37;10.15;;;5.47;;
36191;SDS011;22233;42.708;23.360;2022-12-10T07:27:05;5.60;;;3.38;;
36191;SDS011;22233;42.708;23.360;2022-12-10T07:29:31;8.30;;;3.90;;
36191;SDS011;22233;42.708;23.360;2022-12-10T07:31:57;6.88;;;3.85;;
36191;SDS011;22233;42.708;23.360;2022-12-10T07:34:22;6.25;;;3.45;;
36191;SDS011;22233;42.708;23.360;2022-12-10T07:36:48;5.95;;;4.07;;
36191;SDS011;22233;42.708;23.360;2022-12-10T07:39:14;8.63;;;3.42;;
36191;SDS011;22233;42.708;23.360;2022-12-10T07:41:43;7.45;;;4.05;;
36191;SDS011;22233;42.708;23.360;2022-12-10T07:44:17;3.92;;;2.80;;
36191;SDS011;22233;42.708;23.360;2022-12-10T07:46:48;4.68;;;3.17;;
36191;SDS011;22233;42.708;23.360;2022-12-10T07:49:14;4.13;;;3.10;;
36191;SDS011;22233;42.708;23.360;2022-12-10T07:51:43;4.60;;;2.85;;
36191;SDS011;22233;42.708;23.360;2022-12-10T07:54:12;6.60;;;3.88;;
36191;SDS011;22233;42.708;23.360;2022-12-10T07:56:39;6.28;;;2.95;;
36191;SDS011;22233;42.708;23.360;2022-12-10T07:59:04;10.38;;;4.95;;
36191;SDS011;22233;42.708;23.360;2022-12-10T08:01:29;6.68;;;3.90;;
36191;SDS011;22233;42.708;23.360;2022-12-10T08:03:55;10.77;;;3.80;;
36191;SDS011;22233;42.708;23.360;2022-12-10T08:06:21;6.38;;;4.22;;
36191;SDS011;22233;42.708;23.360;2022-12-10T08:08:48;9.75;;;4.60;;
36191;SDS011;22233;42.708;23.360;2022-12-10T08:11:15;7.03;;;3.70;;
36191;SDS011;22233;42.708;23.360;2022-12-10T08:13:42;8.63;;;4.43;;
36191;SDS011;22233;42.708;23.360;2022-12-10T08:16:10;9.40;;;5.80;;
36191;SDS011;22233;42.708;23.360;2022-12-10T08:18:38;13.80;;;7.05;;
36191;SDS011;22233;42.708;23.360;2022-12-10T08:21:08;9.88;;;6.07;;
36191;SDS011;22233;42.708;23.360;2022-12-10T08:23:36;12.45;;;6.97;;
36191;SDS011;22233;42.708;23.360;2022-12-10T08:26:02;13.13;;;6.78;;
36191;SDS011;22233;42.708;23.360;2022-12-10T08:30:54;9.88;;;6.07;;
36191;SDS011;22233;42.708;23.360;2022-12-10T08:33:20;9.70;;;6.45;;
36191;SDS011;22233;42.708;23.360;2022-12-10T08:35:45;12.52;;;8.20;;
36191;SDS011;22233;42.708;23.360;2022-12-10T08:38:10;11.30;;;5.97;;
36191;SDS011;22233;42.708;23.360;2022-12-10T08:40:38;6.20;;;4.70;;
36191;SDS011;22233;42.708;23.360;2022-12-10T08:43:05;8.98;;;3.75;;
36191;SDS011;22233;42.708;23.360;2022-12-10T08:45:31;7.55;;;4.80;;
36191;SDS011;22233;42.708;23.360;2022-12-10T08:47:56;10.60;;;5.18;;
36191;SDS011;22233;42.708;23.360;2022-12-10T08:50:21;5.93;;;4.05;;
36191;SDS011;22233;42.708;23.360;2022-12-10T08:52:47;5.15;;;3.50;;
36191;SDS011;22233;42.708;23.360;2022-12-10T08:55:12;8.48;;;3.47;;
36191;SDS011;22233;42.708;23.360;2022-12-10T08:57:38;7.75;;;2.85;;
36191;SDS011;22233;42.708;23.360;2022-12-10T09:00:03;5.78;;;2.90;;
36191;SDS011;22233;42.708;23.360;2022-12-10T09:02:29;4.22;;;3.03;;
36191;SDS011;22233;42.708;23.360;2022-12-10T09:04:55;5.13;;;2.53;;
36191;SDS011;22233;42.708;23.360;2022-12-10T09:07:20;6.03;;;2.88;;
36191;SDS011;22233;42.708;23.360;2022-12-10T09:09:46;6.80;;;3.17;;
36191;SDS011;22233;42.708;23.360;2022-12-10T09:12:12;7.07;;;3.80;;
36191;SDS011;22233;42.708;23.360;2022-12-10T09:14:37;5.70;;;3.65;;
36191;SDS011;22233;42.708;23.360;2022-12-10T09:17:05;5.13;;;3.33;;
36191;SDS011;22233;42.708;23.360;2022-12-10T09:19:31;5.82;;;2.75;;
36191;SDS011;22233;42.708;23.360;2022-12-10T09:21:56;6.97;;;3.30;;
36191;SDS011;22233;42.708;23.360;2022-12-10T09:24:21;5.80;;;3.17;;
36191;SDS011;22233;42.708;23.360;2022-12-10T09:26:47;5.32;;;3.17;;
36191;SDS011;22233;42.708;23.360;2022-12-10T09:29:12;5.85;;;3.63;;
36191;SDS011;22233;42.708;23.360;2022-12-10T09:31:38;4.88;;;3.67;;
36191;SDS011;22233;42.708;23.360;2022-12-10T09:34:03;5.38;;;3.65;;
36191;SDS011;22233;42.708;23.360;2022-12-10T09:36:29;7.18;;;4.05;;
36191;SDS011;22233;42.708;23.360;2022-12-10T09:38:54;8.05;;;3.75;;
36191;SDS011;22233;42.708;23.360;2022-12-10T09:44:15;6.27;;;3.30;;
36191;SDS011;22233;42.708;23.360;2022-12-10T09:47:08;5.40;;;3.50;;
36191;SDS011;22233;42.708;23.360;2022-12-10T09:52:20;8.32;;;4.07;;
36191;SDS011;22233;42.708;23.360;2022-12-10T09:54:56;8.40;;;3.60;;
36191;SDS011;22233;42.708;23.360;2022-12-10T09:57:28;7.57;;;3.58;;
36191;SDS011;22233;42.708;23.360;2022-12-10T09:59:59;4.47;;;3.35;;
36191;SDS011;22233;42.708;23.360;2022-12-10T10:02:29;5.05;;;2.92;;
36191;SDS011;22233;42.708;23.360;2022-12-10T10:04:58;4.28;;;3.35;;
36191;SDS011;22233;42.708;23.360;2022-12-10T10:07:31;4.85;;;3.40;;
36191;SDS011;22233;42.708;23.360;2022-12-10T10:10:01;5.78;;;3.03;;
36191;SDS011;22233;42.708;23.360;2022-12-10T10:12:31;3.80;;;2.60;;
36191;SDS011;22233;42.708;23.360;2022-12-10T10:14:59;3.45;;;2.08;;
36191;SDS011;22233;42.708;23.360;2022-12-10T10:17:37;3.65;;;2.53;;
36191;SDS011;22233;42.708;23.360;2022-12-10T10:20:03;3.78;;;2.30;;
36191;SDS011;22233;42.708;23.360;2022-12-10T10:22:29;4.30;;;2.78;;
36191;SDS011;22233;42.708;23.360;2022-12-10T10:24:55;5.53;;;2.60;;
36191;SDS011;22233;42.708;23.360;2022-12-10T10:27:22;3.35;;;2.25;;
36191;SDS011;22233;42.708;23.360;2022-12-10T10:29:52;4.13;;;3.15;;
36191;SDS011;22233;42.708;23.360;2022-12-10T10:34:46;2.85;;;2.35;;
36191;SDS011;22233;42.708;23.360;2022-12-10T10:39:53;5.40;;;2.58;;
36191;SDS011;22233;42.708;23.360;2022-12-10T10:50:45;4.40;;;2.92;;
36191;SDS011;22233;42.708;23.360;2022-12-10T10:53:27;4.60;;;2.90;;
36191;SDS011;22233;42.708;23.360;2022-12-10T10:55:56;5.47;;;3.50;;
36191;SDS011;22233;42.708;23.360;2022-12-10T10:58:24;3.42;;;2.50;;
36191;SDS011;22233;42.708;23.360;2022-12-10T11:00:57;5.55;;;3.35;;
36191;SDS011;22233;42.708;23.360;2022-12-10T11:03:28;7.95;;;4.53;;
36191;SDS011;22233;42.708;23.360;2022-12-10T11:05:56;3.22;;;2.45;;
36191;SDS011;22233;42.708;23.360;2022-12-10T11:08:23;3.95;;;2.65;;
36191;SDS011;22233;42.708;23.360;2022-12-10T11:10:51;4.85;;;3.10;;
36191;SDS011;22233;42.708;23.360;2022-12-10T11:13:28;3.47;;;2.50;;
36191;SDS011;22233;42.708;23.360;2022-12-10T11:16:00;5.68;;;2.90;;
36191;SDS011;22233;42.708;23.360;2022-12-10T11:18:36;4.78;;;2.50;;
36191;SDS011;22233;42.708;23.360;2022-12-10T11:21:05;4.97;;;2.63;;
36191;SDS011;22233;42.708;23.360;2022-12-10T11:23:38;5.13;;;2.45;;
36191;SDS011;22233;42.708;23.360;2022-12-10T11:26:15;4.03;;;2.25;;
36191;SDS011;22233;42.708;23.360;2022-12-10T11:37:48;3.78;;;2.50;;
36191;SDS011;22233;42.708;23.360;2022-12-10T11:51:26;3.63;;;2.28;;
36191;SDS011;22233;42.708;23.360;2022-12-10T11:54:04;3.95;;;2.20;;
36191;SDS011;22233;42.708;23.360;2022-12-10T11:56:40;6.85;;;2.35;;
36191;SDS011;22233;42.708;23.360;2022-12-10T12:01:44;3.80;;;2.33;;
36191;SDS011;22233;42.708;23.360;2022-12-10T12:04:46;5.07;;;3.08;;
36191;SDS011;22233;42.708;23.360;2022-12-10T12:13:08;5.78;;;2.75;;
36191;SDS011;22233;42.708;23.360;2022-12-10T12:15:44;4.47;;;2.80;;
36191;SDS011;22233;42.708;23.360;2022-12-10T12:18:18;5.25;;;2.67;;
36191;SDS011;22233;42.708;23.360;2022-12-10T12:20:49;4.78;;;2.58;;
36191;SDS011;22233;42.708;23.360;2022-12-10T12:23:24;3.67;;;2.53;;
36191;SDS011;22233;42.708;23.360;2022-12-10T12:25:57;4.35;;;2.85;;
36191;SDS011;22233;42.708;23.360;2022-12-10T12:28:31;3.65;;;2.92;;
36191;SDS011;22233;42.708;23.360;2022-12-10T12:31:08;5.55;;;2.92;;
36191;SDS011;22233;42.708;23.360;2022-12-10T12:33:43;3.97;;;3.17;;
36191;SDS011;22233;42.708;23.360;2022-12-10T12:36:22;4.18;;;3.28;;
36191;SDS011;22233;42.708;23.360;2022-12-10T12:39:02;5.57;;;3.95;;
36191;SDS011;22233;42.708;23.360;2022-12-10T12:41:47;6.43;;;3.38;;
36191;SDS011;22233;42.708;23.360;2022-12-10T12:44:33;6.57;;;3.17;;
36191;SDS011;22233;42.708;23.360;2022-12-10T12:47:52;3.53;;;2.95;;
36191;SDS011;22233;42.708;23.360;2022-12-10T12:50:19;8.43;;;3.25;;
36191;SDS011;22233;42.708;23.360;2022-12-10T12:53:12;5.90;;;2.88;;
36191;SDS011;22233;42.708;23.360;2022-12-10T13:03:51;4.80;;;2.80;;
36191;SDS011;22233;42.708;23.360;2022-12-10T13:06:19;6.40;;;2.75;;
36191;SDS011;22233;42.708;23.360;2022-12-10T13:11:41;6.00;;;2.72;;
36191;SDS011;22233;42.708;23.360;2022-12-10T13:25:11;3.55;;;2.55;;
36191;SDS011;22233;42.708;23.360;2022-12-10T13:27:42;7.30;;;3.22;;
36191;SDS011;22233;42.708;23.360;2022-12-10T13:30:30;4.30;;;3.28;;
36191;SDS011;22233;42.708;23.360;2022-12-10T13:33:12;4.55;;;3.08;;
36191;SDS011;22233;42.708;23.360;2022-12-10T13:35:57;3.50;;;2.53;;
36191;SDS011;22233;42.708;23.360;2022-12-10T13:38:25;5.65;;;2.75;;
36191;SDS011;22233;42.708;23.360;2022-12-10T13:41:02;5.80;;;2.67;;
36191;SDS011;22233;42.708;23.360;2022-12-10T13:43:52;3.60;;;2.63;;
36191;SDS011;22233;42.708;23.360;2022-12-10T13:51:55;3.25;;;1.95;;
36191;SDS011;22233;42.708;23.360;2022-12-10T13:54:41;4.28;;;2.38;;
36191;SDS011;22233;42.708;23.360;2022-12-10T13:57:44;3.92;;;2.65;;
36191;SDS011;22233;42.708;23.360;2022-12-10T14:00:38;5.68;;;3.83;;
36191;SDS011;22233;42.708;23.360;2022-12-10T14:08:32;3.10;;;1.98;;
36191;SDS011;22233;42.708;23.360;2022-12-10T14:11:00;5.00;;;2.20;;
36191;SDS011;22233;42.708;23.360;2022-12-10T14:13:40;3.85;;;2.10;;
36191;SDS011;22233;42.708;23.360;2022-12-10T14:16:10;6.45;;;1.85;;
36191;SDS011;22233;42.708;23.360;2022-12-10T14:18:38;2.97;;;2.15;;
36191;SDS011;22233;42.708;23.360;2022-12-10T14:21:07;4.55;;;2.05;;
36191;SDS011;22233;42.708;23.360;2022-12-10T14:23:33;4.22;;;2.45;;
36191;SDS011;22233;42.708;23.360;2022-12-10T14:26:13;4.30;;;2.10;;
36191;SDS011;22233;42.708;23.360;2022-12-10T14:28:42;4.78;;;2.45;;
36191;SDS011;22233;42.708;23.360;2022-12-10T14:31:16;2.97;;;2.25;;
36191;SDS011;22233;42.708;23.360;2022-12-10T14:33:48;3.95;;;2.20;;
36191;SDS011;22233;42.708;23.360;2022-12-10T14:39:20;6.40;;;3.28;;
36191;SDS011;22233;42.708;23.360;2022-12-10T14:41:50;6.28;;;4.13;;
36191;SDS011;22233;42.708;23.360;2022-12-10T14:44:18;7.43;;;4.22;;
36191;SDS011;22233;42.708;23.360;2022-12-10T14:46:46;9.57;;;3.65;;
36191;SDS011;22233;42.708;23.360;2022-12-10T14:49:15;5.72;;;3.90;;
36191;SDS011;22233;42.708;23.360;2022-12-10T14:51:44;12.30;;;7.10;;
36191;SDS011;22233;42.708;23.360;2022-12-10T14:54:23;5.38;;;3.95;;
36191;SDS011;22233;42.708;23.360;2022-12-10T14:56:49;8.13;;;4.25;;
36191;SDS011;22233;42.708;23.360;2022-12-10T14:59:17;8.80;;;3.92;;
36191;SDS011;22233;42.708;23.360;2022-12-10T15:01:47;5.95;;;3.90;;
36191;SDS011;22233;42.708;23.360;2022-12-10T15:04:19;5.57;;;3.58;;
36191;SDS011;22233;42.708;23.360;2022-12-10T15:06:45;11.68;;;6.85;;
36191;SDS011;22233;42.708;23.360;2022-12-10T15:09:16;7.35;;;4.32;;
36191;SDS011;22233;42.708;23.360;2022-12-10T15:11:52;6.88;;;4.13;;
36191;SDS011;22233;42.708;23.360;2022-12-10T15:14:21;5.25;;;4.40;;
36191;SDS011;22233;42.708;23.360;2022-12-10T15:16:48;8.10;;;4.95;;
36191;SDS011;22233;42.708;23.360;2022-12-10T15:21:48;6.80;;;4.40;;
36191;SDS011;22233;42.708;23.360;2022-12-10T15:26:44;6.43;;;3.90;;
36191;SDS011;22233;42.708;23.360;2022-12-10T15:29:15;16.05;;;6.70;;
36191;SDS011;22233;42.708;23.360;2022-12-10T15:31:46;12.40;;;5.80;;
36191;SDS011;22233;42.708;23.360;2022-12-10T15:34:13;9.48;;;5.05;;
36191;SDS011;22233;42.708;23.360;2022-12-10T15:41:49;6.82;;;3.92;;
36191;SDS011;22233;42.708;23.360;2022-12-10T15:46:56;13.25;;;6.65;;
36191;SDS011;22233;42.708;23.360;2022-12-10T15:49:24;9.75;;;5.90;;
36191;SDS011;22233;42.708;23.360;2022-12-10T15:51:50;8.43;;;4.55;;
36191;SDS011;22233;42.708;23.360;2022-12-10T15:54:20;12.90;;;6.00;;
36191;SDS011;22233;42.708;23.360;2022-12-10T15:56:51;7.93;;;5.68;;
36191;SDS011;22233;42.708;23.360;2022-12-10T15:59:17;12.73;;;7.32;;
36191;SDS011;22233;42.708;23.360;2022-12-10T16:01:42;14.20;;;6.32;;
36191;SDS011;22233;42.708;23.360;2022-12-10T16:04:08;9.95;;;6.25;;
36191;SDS011;22233;42.708;23.360;2022-12-10T16:06:34;13.13;;;7.75;;
36191;SDS011;22233;42.708;23.360;2022-12-10T16:08:59;10.68;;;6.32;;
36191;SDS011;22233;42.708;23.360;2022-12-10T16:11:25;8.73;;;6.05;;
36191;SDS011;22233;42.708;23.360;2022-12-10T16:13:53;9.00;;;5.55;;
36191;SDS011;22233;42.708;23.360;2022-12-10T16:16:22;12.07;;;6.20;;
36191;SDS011;22233;42.708;23.360;2022-12-10T16:18:48;7.77;;;5.60;;
36191;SDS011;22233;42.708;23.360;2022-12-10T16:21:14;9.82;;;5.90;;
36191;SDS011;22233;42.708;23.360;2022-12-10T16:23:39;10.93;;;5.88;;
36191;SDS011;22233;42.708;23.360;2022-12-10T16:26:18;8.77;;;5.38;;
36191;SDS011;22233;42.708;23.360;2022-12-10T16:28:45;8.57;;;4.40;;
36191;SDS011;22233;42.708;23.360;2022-12-10T16:31:14;7.63;;;4.57;;
36191;SDS011;22233;42.708;23.360;2022-12-10T16:33:41;7.78;;;5.22;;
36191;SDS011;22233;42.708;23.360;2022-12-10T16:36:07;8.23;;;3.15;;
36191;SDS011;22233;42.708;23.360;2022-12-10T16:38:32;7.00;;;3.25;;
36191;SDS011;22233;42.708;23.360;2022-12-10T16:40:59;7.80;;;3.60;;